createdAt,value
2018-04-24T00:02:23.685Z,15.75
2018-04-24T00:04:51.555Z,15.74
2018-04-24T00:07:19.178Z,15.79
2018-04-24T00:09:46.798Z,15.91
2018-04-24T00:12:14.438Z,15.86
2018-04-24T00:14:42.053Z,15.83
2018-04-24T00:17:09.692Z,15.70
2018-04-24T00:19:37.286Z,15.69
2018-04-24T00:22:05.286Z,15.72
2018-04-24T00:24:32.882Z,15.74
2018-04-24T00:27:00.489Z,15.83
2018-04-24T00:29:28.110Z,15.61
2018-04-24T00:31:55.711Z,15.67
2018-04-24T00:34:23.381Z,15.66
2018-04-24T00:36:50.959Z,15.71
2018-04-24T00:39:18.631Z,15.67
2018-04-24T00:41:46.313Z,15.50
2018-04-24T00:44:13.909Z,15.53
2018-04-24T00:46:41.528Z,15.61
2018-04-24T00:49:09.156Z,15.54
2018-04-24T00:51:36.786Z,15.51
2018-04-24T00:54:04.394Z,15.56
2018-04-24T00:56:32.026Z,15.74
2018-04-24T00:58:59.648Z,15.58
2018-04-24T01:01:27.306Z,15.46
2018-04-24T01:03:54.913Z,15.60
2018-04-24T01:06:22.530Z,15.46
2018-04-24T01:08:50.179Z,15.54
2018-04-24T01:11:17.779Z,15.41
2018-04-24T01:13:45.399Z,15.29
2018-04-24T01:16:12.992Z,15.38
2018-04-24T01:18:40.627Z,15.33
2018-04-24T01:21:08.235Z,15.30
2018-04-24T01:23:35.858Z,15.39
2018-04-24T01:26:03.462Z,15.32
2018-04-24T01:28:31.055Z,15.22
2018-04-24T01:30:58.678Z,15.22
2018-04-24T01:33:26.286Z,15.15
2018-04-24T01:35:53.907Z,15.15
2018-04-24T01:38:21.508Z,15.33
2018-04-24T01:40:49.164Z,15.35
2018-04-24T01:43:16.799Z,15.37
2018-04-24T01:45:44.712Z,15.34
2018-04-24T01:48:12.323Z,15.28
2018-04-24T01:50:39.924Z,15.39
2018-04-24T01:53:07.553Z,15.33
2018-04-24T01:55:36.201Z,15.23
2018-04-24T01:58:03.814Z,15.24
2018-04-24T02:00:31.413Z,15.28
2018-04-24T02:02:59.382Z,15.20
2018-04-24T02:05:26.983Z,15.09
2018-04-24T02:07:54.598Z,15.14
2018-04-24T02:10:22.221Z,15.18
2018-04-24T02:12:49.831Z,14.90
2018-04-24T02:15:18.443Z,15.09
2018-04-24T02:17:46.059Z,14.92
2018-04-24T02:20:13.811Z,14.96
2018-04-24T02:22:41.445Z,14.81
2018-04-24T02:25:09.035Z,14.88
2018-04-24T02:27:36.658Z,14.97
2018-04-24T02:30:04.259Z,14.83
2018-04-24T02:32:31.882Z,14.80
2018-04-24T02:34:59.487Z,14.81
2018-04-24T02:37:27.132Z,14.99
2018-04-24T02:39:54.735Z,14.94
2018-04-24T02:42:22.333Z,14.72
2018-04-24T02:44:49.982Z,14.76
2018-04-24T02:47:17.603Z,14.97
2018-04-24T02:49:45.221Z,14.90
2018-04-24T02:52:12.823Z,14.88
2018-04-24T02:54:40.442Z,14.94
2018-04-24T02:57:08.039Z,14.71
2018-04-24T02:59:35.795Z,14.63
2018-04-24T03:02:03.415Z,14.54
2018-04-24T03:04:31.014Z,14.55
2018-04-24T03:06:58.660Z,14.42
2018-04-24T03:09:26.255Z,14.65
2018-04-24T03:11:53.968Z,14.59
2018-04-24T03:14:21.506Z,14.48
2018-04-24T03:16:49.314Z,14.49
2018-04-24T03:19:16.909Z,14.44
2018-04-24T03:21:44.499Z,14.45
2018-04-24T03:24:12.121Z,14.53
2018-04-24T03:26:39.731Z,14.53
2018-04-24T03:29:07.353Z,14.59
2018-04-24T03:31:36.211Z,14.43
2018-04-24T03:34:04.099Z,14.42
2018-04-24T03:36:31.717Z,14.47
2018-04-24T03:38:59.329Z,14.34
2018-04-24T03:41:26.951Z,14.37
2018-04-24T03:43:54.572Z,14.22
2018-04-24T03:46:22.208Z,14.23
2018-04-24T03:48:49.872Z,14.30
2018-04-24T03:51:17.740Z,14.28
2018-04-24T03:53:45.335Z,14.17
2018-04-24T03:56:12.942Z,14.29
2018-04-24T03:58:40.556Z,14.24
2018-04-24T04:01:08.160Z,14.26
2018-04-24T04:03:35.789Z,14.29
2018-04-24T04:06:03.415Z,14.27
2018-04-24T04:08:31.168Z,14.19
2018-04-24T04:10:58.789Z,14.21
2018-04-24T04:13:26.389Z,14.10
2018-04-24T04:15:54.098Z,14.07
2018-04-24T04:18:33.377Z,14.10
2018-04-24T04:21:12.876Z,14.03
2018-04-24T04:23:52.256Z,14.07
2018-04-24T04:26:19.886Z,14.07
2018-04-24T04:28:49.161Z,13.98
2018-04-24T04:31:16.791Z,14.00
2018-04-24T04:33:44.392Z,14.06
2018-04-24T04:36:12.220Z,14.05
2018-04-24T04:38:39.832Z,14.08
2018-04-24T04:41:07.445Z,14.07
2018-04-24T04:43:35.081Z,14.12
2018-04-24T04:46:02.678Z,14.10
2018-04-24T04:48:30.790Z,14.18
2018-04-24T04:50:58.383Z,14.19
2018-04-24T04:53:25.995Z,14.24
2018-04-24T04:55:53.626Z,14.18
2018-04-24T04:58:21.226Z,14.20
2018-04-24T05:00:48.859Z,14.22
2018-04-24T05:03:16.461Z,14.29
2018-04-24T05:05:44.092Z,14.28
2018-04-24T05:08:11.685Z,14.30
2018-04-24T05:10:39.498Z,14.24
2018-04-24T05:13:07.130Z,14.32
2018-04-24T05:15:34.739Z,14.29
2018-04-24T05:18:02.372Z,14.31
2018-04-24T05:20:29.977Z,14.28
2018-04-24T05:22:57.606Z,14.32
2018-04-24T05:25:25.272Z,14.38
2018-04-24T05:27:52.903Z,14.45
2018-04-24T05:30:20.530Z,14.49
2018-04-24T05:32:48.123Z,14.42
2018-04-24T05:35:15.754Z,14.56
2018-04-24T05:37:43.358Z,14.27
2018-04-24T05:40:10.980Z,14.31
2018-04-24T05:42:38.585Z,14.32
2018-04-24T05:45:06.189Z,14.53
2018-04-24T05:47:33.904Z,14.57
2018-04-24T05:50:01.504Z,14.57
2018-04-24T05:52:29.170Z,14.61
2018-04-24T05:54:56.852Z,14.68
2018-04-24T05:57:24.402Z,14.83
2018-04-24T05:59:52.021Z,14.86
2018-04-24T06:02:19.614Z,14.75
2018-04-24T06:04:47.235Z,14.84
2018-04-24T06:07:14.847Z,14.95
2018-04-24T06:09:42.466Z,15.06
2018-04-24T06:12:10.068Z,15.12
2018-04-24T06:14:38.217Z,15.08
2018-04-24T06:17:05.825Z,15.04
2018-04-24T06:19:33.417Z,15.05
2018-04-24T06:22:01.208Z,15.16
2018-04-24T06:24:28.803Z,15.33
2018-04-24T06:26:56.417Z,15.47
2018-04-24T06:29:24.010Z,15.33
2018-04-24T06:31:51.688Z,15.46
2018-04-24T06:34:19.281Z,15.52
2018-04-24T06:36:46.938Z,15.63
2018-04-24T06:39:14.550Z,15.67
2018-04-24T06:41:42.132Z,15.81
2018-04-24T06:44:09.759Z,15.87
2018-04-24T06:46:37.354Z,15.85
2018-04-24T06:49:05.173Z,15.88
2018-04-24T06:51:32.775Z,15.81
2018-04-24T06:54:00.370Z,15.92
2018-04-24T06:56:27.981Z,15.88
2018-04-24T06:58:55.606Z,15.90
2018-04-24T07:01:23.230Z,16.02
2018-04-24T07:03:51.154Z,16.10
2018-04-24T07:06:19.059Z,16.24
2018-04-24T07:08:46.681Z,16.15
2018-04-24T07:11:14.323Z,16.22
2018-04-24T07:13:41.957Z,16.45
2018-04-24T07:16:09.549Z,16.16
2018-04-24T07:18:37.170Z,16.30
2018-04-24T07:21:04.772Z,16.38
2018-04-24T07:23:32.402Z,16.65
2018-04-24T07:25:59.998Z,16.64
2018-04-24T07:28:27.593Z,16.64
2018-04-24T07:30:55.218Z,16.69
2018-04-24T07:33:22.809Z,16.81
2018-04-24T07:35:50.453Z,16.56
2018-04-24T07:38:18.051Z,16.66
2018-04-24T07:40:45.834Z,16.79
2018-04-24T07:43:13.425Z,16.75
2018-04-24T07:45:41.057Z,16.79
2018-04-24T07:48:08.642Z,16.80
2018-04-24T07:50:36.239Z,16.92
2018-04-24T07:53:07.990Z,17.08
2018-04-24T07:55:35.637Z,16.95
2018-04-24T07:58:03.326Z,17.11
2018-04-24T08:00:30.923Z,17.18
2018-04-24T08:02:58.837Z,17.15
2018-04-24T08:05:26.443Z,17.14
2018-04-24T08:07:54.034Z,17.12
2018-04-24T08:10:21.650Z,17.16
2018-04-24T08:12:49.607Z,17.17
2018-04-24T08:15:17.290Z,17.15
2018-04-24T08:17:44.838Z,17.20
2018-04-24T08:20:12.637Z,17.31
2018-04-24T08:22:40.420Z,17.33
2018-04-24T08:25:08.414Z,17.57
2018-04-24T08:27:36.377Z,17.63
2018-04-24T08:30:04.014Z,17.82
2018-04-24T08:32:31.623Z,18.18
2018-04-24T08:34:59.242Z,18.00
2018-04-24T08:37:26.889Z,17.86
2018-04-24T08:39:54.487Z,17.92
2018-04-24T08:42:22.111Z,17.86
2018-04-24T08:44:50.765Z,18.09
2018-04-24T08:47:18.366Z,18.16
2018-04-24T08:49:46.003Z,18.30
2018-04-24T08:52:13.599Z,18.51
2018-04-24T08:54:41.395Z,18.39
2018-04-24T08:57:09.098Z,18.29
2018-04-24T08:59:36.709Z,18.34
2018-04-24T09:02:04.353Z,18.19
2018-04-24T09:04:32.774Z,18.31
2018-04-24T09:07:00.631Z,18.08
2018-04-24T09:09:28.303Z,18.28
2018-04-24T09:11:56.194Z,18.45
2018-04-24T09:14:23.790Z,18.40
2018-04-24T09:16:51.694Z,18.48
2018-04-24T09:19:19.286Z,18.77
2018-04-24T09:21:46.881Z,18.70
2018-04-24T09:24:14.646Z,18.60
2018-04-24T09:26:42.232Z,18.59
2018-04-24T09:29:09.842Z,18.73
2018-04-24T09:31:42.999Z,18.92
2018-04-24T09:34:10.808Z,19.94
2018-04-24T09:36:38.760Z,20.47
2018-04-24T09:39:06.428Z,20.66
2018-04-24T09:41:34.033Z,20.81
2018-04-24T09:44:01.858Z,20.63
2018-04-24T09:46:29.489Z,20.39
2018-04-24T09:48:57.087Z,20.59
2018-04-24T09:51:25.230Z,20.85
2018-04-24T09:53:52.819Z,20.96
2018-04-24T09:56:20.407Z,20.85
2018-04-24T09:58:48.075Z,20.90
2018-04-24T10:01:15.702Z,21.09
2018-04-24T10:03:43.913Z,21.06
2018-04-24T10:06:12.040Z,21.02
2018-04-24T10:08:39.757Z,21.07
2018-04-24T10:11:07.356Z,21.01
2018-04-24T10:13:35.016Z,20.96
2018-04-24T10:16:02.600Z,21.42
2018-04-24T10:18:30.216Z,21.21
2018-04-24T10:20:58.399Z,20.67
2018-04-24T10:23:27.208Z,20.52
2018-04-24T10:25:55.110Z,20.41
2018-04-24T10:28:23.048Z,19.75
2018-04-24T10:30:50.923Z,19.89
2018-04-24T10:33:18.941Z,20.72
2018-04-24T10:35:46.812Z,20.14
2018-04-24T10:38:14.911Z,20.51
2018-04-24T10:40:42.461Z,20.82
2018-04-24T10:43:10.080Z,20.93
2018-04-24T10:45:37.676Z,21.16
2018-04-24T10:48:05.379Z,21.24
2018-04-24T10:50:32.944Z,21.14
2018-04-24T10:53:00.541Z,21.26
2018-04-24T10:55:28.157Z,21.04
2018-04-24T10:57:55.747Z,21.10
2018-04-24T11:00:23.889Z,20.87
2018-04-24T11:02:51.734Z,20.79
2018-04-24T11:05:19.329Z,20.85
2018-04-24T11:07:46.954Z,20.84
2018-04-24T11:10:14.542Z,20.93
2018-04-24T11:12:42.188Z,21.13
2018-04-24T11:15:09.784Z,21.13
2018-04-24T11:17:37.422Z,21.28
2018-04-24T11:20:05.015Z,21.11
2018-04-24T11:22:32.630Z,21.26
2018-04-24T11:25:00.255Z,21.05
2018-04-24T11:27:27.864Z,21.19
2018-04-24T11:29:55.483Z,21.28
2018-04-24T11:32:23.155Z,21.20
2018-04-24T11:34:50.721Z,21.35
2018-04-24T11:37:18.316Z,21.29
2018-04-24T11:39:45.913Z,21.45
2018-04-24T11:42:13.530Z,20.87
2018-04-24T11:44:41.122Z,21.20
2018-04-24T11:47:08.737Z,21.33
2018-04-24T11:49:36.416Z,21.50
2018-04-24T11:52:04.073Z,21.65
2018-04-24T11:54:31.663Z,21.78
2018-04-24T11:56:59.261Z,21.87
2018-04-24T11:59:27.160Z,21.70
2018-04-24T12:01:54.755Z,21.76
2018-04-24T12:04:22.399Z,21.79
2018-04-24T12:06:49.991Z,21.84
2018-04-24T12:09:17.588Z,21.78
2018-04-24T12:11:45.610Z,21.77
2018-04-24T12:14:13.436Z,21.94
2018-04-24T12:16:41.061Z,22.06
2018-04-24T12:19:08.672Z,21.85
2018-04-24T12:21:36.738Z,21.72
2018-04-24T12:24:04.359Z,21.91
2018-04-24T12:26:32.155Z,22.01
2018-04-24T12:29:01.369Z,21.92
2018-04-24T12:31:30.472Z,20.89
2018-04-24T12:34:00.727Z,20.77
2018-04-24T12:36:28.491Z,20.21
2018-04-24T12:38:56.166Z,20.25
2018-04-24T12:41:23.748Z,20.24
2018-04-24T12:43:51.337Z,20.31
2018-04-24T12:46:19.231Z,20.34
2018-04-24T12:48:46.830Z,20.68
2018-04-24T12:51:14.843Z,20.93
2018-04-24T12:53:42.434Z,21.08
2018-04-24T12:56:10.289Z,20.96
2018-04-24T12:58:37.899Z,21.69
2018-04-24T13:01:05.550Z,22.21
2018-04-24T13:03:33.176Z,22.32
2018-04-24T13:06:00.867Z,22.01
2018-04-24T13:08:28.458Z,22.34
2018-04-24T13:10:56.082Z,22.90
2018-04-24T13:13:24.283Z,23.13
2018-04-24T13:15:59.052Z,23.07
2018-04-24T13:18:26.895Z,21.30
2018-04-24T13:20:54.577Z,22.01
2018-04-24T13:23:22.901Z,22.11
2018-04-24T13:25:51.026Z,22.55
2018-04-24T13:28:18.745Z,21.87
2018-04-24T13:30:46.335Z,22.47
2018-04-24T13:33:13.975Z,22.96
2018-04-24T13:35:41.685Z,24.11
2018-04-24T13:38:09.549Z,23.54
2018-04-24T13:40:37.139Z,23.61
2018-04-24T13:43:04.779Z,22.51
2018-04-24T13:45:32.407Z,23.18
2018-04-24T13:48:00.001Z,24.14
2018-04-24T13:50:27.655Z,24.08
2018-04-24T13:52:55.412Z,23.84
2018-04-24T13:55:23.247Z,23.92
2018-04-24T13:57:50.850Z,23.11
2018-04-24T14:00:18.626Z,22.72
2018-04-24T14:02:46.239Z,22.67
2018-04-24T14:05:13.823Z,22.76
2018-04-24T14:07:41.574Z,23.08
2018-04-24T14:10:09.221Z,22.84
2018-04-24T14:12:36.827Z,22.24
2018-04-24T14:15:04.991Z,21.96
2018-04-24T14:17:32.611Z,22.24
2018-04-24T14:20:00.461Z,22.12
2018-04-24T14:22:28.059Z,21.82
2018-04-24T14:24:56.150Z,22.14
2018-04-24T14:27:23.735Z,22.40
2018-04-24T14:29:51.445Z,21.89
2018-04-24T14:32:19.051Z,22.04
2018-04-24T14:34:46.649Z,21.76
2018-04-24T14:37:14.297Z,21.68
2018-04-24T14:39:41.931Z,21.61
2018-04-24T14:42:09.700Z,21.71
2018-04-24T14:44:37.295Z,21.84
2018-04-24T14:47:04.890Z,22.01
2018-04-24T14:49:32.499Z,21.86
2018-04-24T14:52:00.122Z,21.87
2018-04-24T14:54:27.732Z,21.46
2018-04-24T14:56:55.335Z,21.46
2018-04-24T14:59:22.988Z,21.35
2018-04-24T15:01:50.580Z,21.81
2018-04-24T15:04:18.173Z,22.02
2018-04-24T15:06:45.792Z,21.58
2018-04-24T15:09:13.374Z,21.52
2018-04-24T15:11:44.163Z,21.56
2018-04-24T15:14:12.094Z,21.55
2018-04-24T15:16:40.034Z,21.51
2018-04-24T15:19:07.699Z,21.36
2018-04-24T15:21:35.309Z,21.55
2018-04-24T15:24:02.994Z,21.55
2018-04-24T15:26:30.600Z,21.46
2018-04-24T15:28:58.207Z,21.30
2018-04-24T15:31:25.797Z,21.27
2018-04-24T15:33:53.672Z,21.28
2018-04-24T15:36:21.288Z,21.43
2018-04-24T15:38:48.911Z,21.29
2018-04-24T15:41:16.536Z,21.32
2018-04-24T15:43:44.135Z,21.44
2018-04-24T15:46:11.788Z,21.37
2018-04-24T15:48:39.374Z,21.18
2018-04-24T15:51:07.202Z,21.00
2018-04-24T15:53:34.791Z,21.29
2018-04-24T15:56:02.445Z,20.94
2018-04-24T15:58:30.061Z,21.01
2018-04-24T16:00:57.663Z,20.92
2018-04-24T16:03:25.293Z,20.93
2018-04-24T16:05:52.887Z,21.20
2018-04-24T16:08:20.749Z,21.45
2018-04-24T16:10:48.515Z,21.41
2018-04-24T16:13:16.107Z,21.28
2018-04-24T16:15:43.715Z,21.29
2018-04-24T16:18:11.300Z,21.22
2018-04-24T16:20:38.913Z,20.90
2018-04-24T16:23:06.526Z,20.80
2018-04-24T16:25:34.156Z,20.84
2018-04-24T16:28:01.766Z,20.99
2018-04-24T16:30:29.384Z,20.96
2018-04-24T16:32:57.004Z,21.32
2018-04-24T16:35:24.596Z,21.03
2018-04-24T16:37:52.225Z,20.85
2018-04-24T16:40:19.816Z,20.71
2018-04-24T16:42:47.450Z,20.67
2018-04-24T16:45:15.047Z,20.69
2018-04-24T16:47:42.642Z,20.56
2018-04-24T16:50:10.289Z,20.74
2018-04-24T16:52:37.882Z,20.80
2018-04-24T16:55:05.511Z,20.61
2018-04-24T16:57:33.110Z,20.75
2018-04-24T17:00:00.748Z,20.50
2018-04-24T17:02:28.345Z,20.71
2018-04-24T17:04:55.955Z,20.59
2018-04-24T17:07:23.591Z,20.52
2018-04-24T17:09:51.223Z,20.34
2018-04-24T17:12:18.850Z,20.32
2018-04-24T17:14:46.470Z,20.21
2018-04-24T17:17:14.383Z,20.21
2018-04-24T17:19:41.982Z,20.31
2018-04-24T17:22:09.586Z,20.23
2018-04-24T17:24:37.216Z,20.18
2018-04-24T17:27:04.842Z,20.01
2018-04-24T17:29:32.496Z,20.09
2018-04-24T17:32:00.092Z,20.05
2018-04-24T17:34:27.749Z,20.03
2018-04-24T17:36:55.347Z,20.19
2018-04-24T17:39:22.944Z,20.29
2018-04-24T17:41:50.556Z,20.17
2018-04-24T17:44:18.151Z,20.20
2018-04-24T17:46:45.822Z,19.91
2018-04-24T17:49:13.425Z,19.93
2018-04-24T17:51:41.244Z,19.80
2018-04-24T17:54:09.140Z,19.56
2018-04-24T17:56:36.797Z,19.58
2018-04-24T17:59:04.385Z,19.69
2018-04-24T18:01:31.971Z,19.71
2018-04-24T18:03:59.591Z,19.59
2018-04-24T18:06:27.229Z,19.52
2018-04-24T18:08:54.894Z,19.52
2018-04-24T18:11:22.509Z,19.33
2018-04-24T18:13:50.209Z,19.30
2018-04-24T18:16:17.850Z,19.30
2018-04-24T18:18:46.238Z,19.47
2018-04-24T18:21:13.853Z,19.37
2018-04-24T18:23:41.455Z,19.51
2018-04-24T18:26:09.083Z,19.35
2018-04-24T18:28:36.696Z,19.15
2018-04-24T18:31:04.303Z,19.22
2018-04-24T18:33:31.919Z,19.24
2018-04-24T18:35:59.523Z,19.29
2018-04-24T18:38:27.151Z,19.22
2018-04-24T18:40:54.763Z,19.23
2018-04-24T18:43:22.690Z,19.08
2018-04-24T18:45:50.291Z,19.03
2018-04-24T18:48:17.895Z,18.92
2018-04-24T18:50:45.524Z,18.88
2018-04-24T18:53:13.161Z,18.79
2018-04-24T18:55:40.773Z,18.75
2018-04-24T18:58:08.391Z,18.77
2018-04-24T19:00:36.213Z,18.75
2018-04-24T19:03:03.818Z,18.71
2018-04-24T19:05:31.427Z,18.91
2018-04-24T19:07:59.058Z,18.88
2018-04-24T19:10:26.667Z,18.79
2018-04-24T19:12:54.294Z,18.88
2018-04-24T19:15:21.894Z,18.76
2018-04-24T19:17:49.523Z,18.71
2018-04-24T19:20:17.123Z,18.72
2018-04-24T19:22:44.751Z,18.69
2018-04-24T19:25:17.762Z,18.64
2018-04-24T19:27:45.390Z,18.56
2018-04-24T19:30:12.999Z,18.51
2018-04-24T19:32:40.604Z,18.43
2018-04-24T19:35:08.230Z,18.40
2018-04-24T19:37:35.835Z,18.27
2018-04-24T19:40:09.050Z,18.25
2018-04-24T19:42:36.655Z,18.18
2018-04-24T19:45:04.262Z,18.13
2018-04-24T19:47:31.882Z,18.08
2018-04-24T19:50:05.025Z,18.03
2018-04-24T19:52:32.648Z,17.96
2018-04-24T19:55:05.888Z,17.93
2018-04-24T19:57:33.504Z,17.89
2018-04-24T20:00:01.125Z,17.85
2018-04-24T20:02:28.740Z,17.77
2018-04-24T20:04:56.334Z,17.78
2018-04-24T20:07:24.208Z,17.77
2018-04-24T20:09:51.914Z,17.73
2018-04-24T20:12:19.521Z,17.68
2018-04-24T20:14:47.148Z,17.67
2018-04-24T20:17:14.738Z,17.54
2018-04-24T20:19:42.359Z,17.48
2018-04-24T20:22:09.956Z,17.48
2018-04-24T20:24:37.635Z,17.38
2018-04-24T20:27:05.238Z,17.26
2018-04-24T20:29:32.834Z,17.19
2018-04-24T20:32:00.487Z,17.13
2018-04-24T20:34:28.086Z,17.02
2018-04-24T20:36:55.742Z,17.03
2018-04-24T20:39:23.341Z,17.06
2018-04-24T20:41:50.933Z,17.04
2018-04-24T20:44:18.552Z,16.96
2018-04-24T20:46:46.148Z,16.90
2018-04-24T20:49:13.771Z,16.91
2018-04-24T20:51:41.392Z,16.87
2018-04-24T20:54:09.063Z,16.81
2018-04-24T20:56:36.660Z,16.75
2018-04-24T20:59:04.260Z,16.72
2018-04-24T21:01:31.908Z,16.68
2018-04-24T21:03:59.508Z,16.65
2018-04-24T21:06:27.133Z,16.53
2018-04-24T21:08:54.727Z,16.49
2018-04-24T21:11:22.402Z,16.44
2018-04-24T21:13:50.197Z,16.42
2018-04-24T21:16:17.794Z,16.42
2018-04-24T21:18:45.410Z,16.43
2018-04-24T21:21:13.017Z,16.40
2018-04-24T21:23:40.657Z,16.36
2018-04-24T21:26:08.272Z,16.37
2018-04-24T21:28:36.011Z,16.40
2018-04-24T21:31:03.606Z,16.34
2018-04-24T21:33:31.315Z,16.31
2018-04-24T21:35:58.942Z,16.29
2018-04-24T21:38:26.538Z,16.23
2018-04-24T21:40:54.162Z,16.21
2018-04-24T21:43:21.762Z,16.18
2018-04-24T21:45:49.414Z,16.19
2018-04-24T21:48:17.056Z,16.12
2018-04-24T21:50:44.655Z,16.10
2018-04-24T21:53:12.270Z,16.08
2018-04-24T21:55:39.886Z,16.02
2018-04-24T21:58:07.511Z,16.00
2018-04-24T22:00:35.122Z,15.90
2018-04-24T22:03:02.796Z,15.87
2018-04-24T22:05:30.395Z,15.85
2018-04-24T22:07:57.987Z,15.82
2018-04-24T22:10:25.612Z,15.72
2018-04-24T22:12:53.205Z,15.71
2018-04-24T22:15:20.824Z,15.68
2018-04-24T22:17:48.436Z,15.61
2018-04-24T22:20:16.097Z,15.58
2018-04-24T22:22:43.697Z,15.56
2018-04-24T22:25:11.302Z,15.52
2018-04-24T22:27:38.938Z,15.51
2018-04-24T22:30:06.538Z,15.52
2018-04-24T22:32:34.156Z,15.48
2018-04-24T22:35:01.761Z,15.37
2018-04-24T22:37:29.663Z,15.33
2018-04-24T22:39:57.287Z,15.29
2018-04-24T22:42:24.875Z,15.27
2018-04-24T22:44:52.494Z,15.19
2018-04-24T22:47:20.086Z,15.18
2018-04-24T22:49:47.743Z,15.07
2018-04-24T22:52:15.392Z,15.13
2018-04-24T22:54:43.011Z,15.12
2018-04-24T22:57:10.831Z,15.05
2018-04-24T22:59:38.429Z,14.98
2018-04-24T23:02:06.064Z,14.96
2018-04-24T23:04:33.756Z,14.93
2018-04-24T23:07:01.402Z,14.93
2018-04-24T23:09:28.998Z,14.87
2018-04-24T23:12:08.483Z,14.87
2018-04-24T23:14:47.870Z,14.85
2018-04-24T23:17:27.372Z,14.89
2018-04-24T23:20:06.746Z,14.84
2018-04-24T23:22:34.410Z,14.81
2018-04-24T23:25:02.009Z,14.74
2018-04-24T23:27:29.653Z,14.68
2018-04-24T23:29:57.302Z,14.68
2018-04-24T23:32:24.900Z,14.65
2018-04-24T23:34:52.536Z,14.64
2018-04-24T23:37:20.143Z,14.59
2018-04-24T23:39:47.770Z,14.65
2018-04-24T23:42:15.387Z,14.53
2018-04-24T23:44:43.021Z,14.52
2018-04-24T23:47:10.616Z,14.58
2018-04-24T23:49:38.310Z,14.58
2018-04-24T23:52:05.902Z,14.61
2018-04-24T23:54:33.505Z,14.56
2018-04-24T23:57:01.137Z,14.56
2018-04-24T23:59:28.839Z,14.56
